createdAt,value
2023-06-29T00:01:04.904Z,13.85
2023-06-29T00:03:53.621Z,14.80
2023-06-29T00:06:21.339Z,12.73
2023-06-29T00:08:49.162Z,13.35
2023-06-29T00:11:17.245Z,12.63
2023-06-29T00:13:44.684Z,14.43
2023-06-29T00:16:12.358Z,15.43
2023-06-29T00:18:39.838Z,13.10
2023-06-29T00:21:07.521Z,14.27
2023-06-29T00:23:35.576Z,17.38
2023-06-29T00:26:03.561Z,15.43
2023-06-29T00:28:31.009Z,14.30
2023-06-29T00:30:58.790Z,15.02
2023-06-29T00:33:26.245Z,13.27
2023-06-29T00:35:53.859Z,15.48
2023-06-29T00:38:21.228Z,11.85
2023-06-29T00:40:49.873Z,13.57
2023-06-29T00:43:19.078Z,13.18
2023-06-29T00:45:46.730Z,14.40
2023-06-29T00:48:14.408Z,12.05
2023-06-29T00:50:42.516Z,14.93
2023-06-29T00:53:10.147Z,12.30
2023-06-29T00:55:38.171Z,14.43
2023-06-29T00:58:05.584Z,16.55
2023-06-29T01:00:35.018Z,13.07
2023-06-29T01:03:02.513Z,15.77
2023-06-29T01:05:34.247Z,12.60
2023-06-29T01:08:15.121Z,14.52
2023-06-29T01:10:44.068Z,13.90
2023-06-29T01:13:12.126Z,12.55
2023-06-29T01:15:41.030Z,13.43
2023-06-29T01:18:09.167Z,12.00
2023-06-29T01:20:37.403Z,11.27
2023-06-29T01:23:09.180Z,12.52
2023-06-29T01:25:37.252Z,11.30
2023-06-29T01:28:08.717Z,13.23
2023-06-29T01:30:49.829Z,12.00
2023-06-29T01:33:18.326Z,13.18
2023-06-29T01:35:46.328Z,10.65
2023-06-29T01:38:36.915Z,11.95
2023-06-29T01:41:07.376Z,11.43
2023-06-29T01:43:35.320Z,14.18
2023-06-29T01:46:03.985Z,11.07
2023-06-29T01:48:32.000Z,10.95
2023-06-29T01:50:59.823Z,10.57
2023-06-29T01:53:27.251Z,10.57
2023-06-29T01:55:54.841Z,11.07
2023-06-29T01:58:22.333Z,13.35
2023-06-29T02:00:50.323Z,13.23
2023-06-29T02:03:17.795Z,9.23
2023-06-29T02:05:45.613Z,10.73
2023-06-29T02:08:13.311Z,8.57
2023-06-29T02:10:41.056Z,10.52
2023-06-29T02:13:08.760Z,13.10
2023-06-29T02:15:36.352Z,12.07
2023-06-29T02:18:03.745Z,11.35
2023-06-29T02:20:31.391Z,10.65
2023-06-29T02:22:58.747Z,11.88
2023-06-29T02:25:26.331Z,10.55
2023-06-29T02:27:53.786Z,10.48
2023-06-29T02:30:21.391Z,11.48
2023-06-29T02:32:48.862Z,11.35
2023-06-29T02:35:16.666Z,12.93
2023-06-29T02:37:44.478Z,12.30
2023-06-29T02:40:12.474Z,11.65
2023-06-29T02:42:39.889Z,17.60
2023-06-29T02:45:07.891Z,18.83
2023-06-29T02:47:35.358Z,14.25
2023-06-29T02:50:03.146Z,11.25
2023-06-29T02:52:30.552Z,13.77
2023-06-29T02:54:58.140Z,13.23
2023-06-29T02:57:25.540Z,13.52
2023-06-29T02:59:53.156Z,10.73
2023-06-29T03:02:20.583Z,14.30
2023-06-29T03:04:48.228Z,12.02
2023-06-29T03:07:15.613Z,14.60
2023-06-29T03:09:43.360Z,15.45
2023-06-29T03:12:10.957Z,13.35
2023-06-29T03:14:38.586Z,11.88
2023-06-29T03:17:06.712Z,12.77
2023-06-29T03:19:34.454Z,10.30
2023-06-29T03:22:01.822Z,12.45
2023-06-29T03:24:29.526Z,13.88
2023-06-29T03:26:56.891Z,15.48
2023-06-29T03:29:24.606Z,14.65
2023-06-29T03:31:52.039Z,11.82
2023-06-29T03:34:19.700Z,15.38
2023-06-29T03:36:47.080Z,11.13
2023-06-29T03:39:14.683Z,11.75
2023-06-29T03:41:42.001Z,13.93
2023-06-29T03:44:09.663Z,12.30
2023-06-29T03:46:37.036Z,16.15
2023-06-29T03:49:05.179Z,15.75
2023-06-29T03:51:32.599Z,11.43
2023-06-29T03:54:00.271Z,10.43
2023-06-29T03:56:27.643Z,12.52
2023-06-29T03:58:55.252Z,9.45
2023-06-29T04:01:22.831Z,13.48
2023-06-29T04:03:50.552Z,11.13
2023-06-29T04:06:17.893Z,10.52
2023-06-29T04:08:45.720Z,10.88
2023-06-29T04:11:13.410Z,10.43
2023-06-29T04:13:41.385Z,7.43
2023-06-29T04:16:08.844Z,12.75
2023-06-29T04:18:36.876Z,10.65
2023-06-29T04:21:04.445Z,9.00
2023-06-29T04:23:32.182Z,8.65
2023-06-29T04:26:04.046Z,9.70
2023-06-29T04:28:34.565Z,14.33
2023-06-29T04:31:01.995Z,10.05
2023-06-29T04:33:30.154Z,10.10
2023-06-29T04:35:57.490Z,9.68
2023-06-29T04:38:27.777Z,8.82
2023-06-29T04:41:04.573Z,13.25
2023-06-29T04:43:32.912Z,8.23
2023-06-29T04:46:05.339Z,7.25
2023-06-29T04:48:39.553Z,9.35
2023-06-29T04:51:07.260Z,8.18
2023-06-29T04:53:35.653Z,8.90
2023-06-29T04:56:03.193Z,6.57
2023-06-29T04:58:31.054Z,5.13
2023-06-29T05:00:58.690Z,8.52
2023-06-29T05:03:26.728Z,8.63
2023-06-29T05:05:54.213Z,8.18
2023-06-29T05:08:21.855Z,5.32
2023-06-29T05:10:49.236Z,7.85
2023-06-29T05:13:16.856Z,6.75
2023-06-29T05:15:48.782Z,6.10
2023-06-29T05:18:16.994Z,10.32
2023-06-29T05:20:44.425Z,8.88
2023-06-29T05:23:12.732Z,5.93
2023-06-29T05:25:42.232Z,6.00
2023-06-29T05:28:10.323Z,6.93
2023-06-29T05:30:37.747Z,8.80
2023-06-29T05:33:06.056Z,5.82
2023-06-29T05:35:35.569Z,8.43
2023-06-29T05:38:03.439Z,6.93
2023-06-29T05:40:31.070Z,8.32
2023-06-29T05:42:58.992Z,7.28
2023-06-29T05:45:26.325Z,6.82
2023-06-29T05:47:56.097Z,9.68
2023-06-29T05:50:23.510Z,4.78
2023-06-29T05:52:51.543Z,8.10
2023-06-29T05:55:20.627Z,6.38
2023-06-29T05:57:49.074Z,4.80
2023-06-29T06:00:16.883Z,10.35
2023-06-29T06:02:44.748Z,5.95
2023-06-29T06:05:12.609Z,8.88
2023-06-29T06:07:40.538Z,7.10
2023-06-29T06:10:08.240Z,4.90
2023-06-29T06:12:35.887Z,9.73
2023-06-29T06:15:03.337Z,4.25
2023-06-29T06:17:31.304Z,6.88
2023-06-29T06:19:58.702Z,7.53
2023-06-29T06:22:26.356Z,6.55
2023-06-29T06:24:53.696Z,8.15
2023-06-29T06:27:21.392Z,7.78
2023-06-29T06:29:48.811Z,8.00
2023-06-29T06:32:16.484Z,7.70
2023-06-29T06:34:45.119Z,7.82
2023-06-29T06:37:12.807Z,5.10
2023-06-29T06:39:40.160Z,4.72
2023-06-29T06:42:07.644Z,4.20
2023-06-29T06:44:37.722Z,7.15
2023-06-29T06:47:05.391Z,6.03
2023-06-29T06:49:33.096Z,7.85
2023-06-29T06:52:03.291Z,4.35
2023-06-29T06:54:30.967Z,10.27
2023-06-29T06:56:58.330Z,7.70
2023-06-29T06:59:25.984Z,9.15
2023-06-29T07:01:53.451Z,7.95
2023-06-29T07:04:21.120Z,7.13
2023-06-29T07:06:48.487Z,4.38
2023-06-29T07:09:17.299Z,8.00
2023-06-29T07:11:44.599Z,8.20
2023-06-29T07:14:12.379Z,5.93
2023-06-29T07:16:39.837Z,9.35
2023-06-29T07:21:43.167Z,5.18
2023-06-29T07:24:11.430Z,6.07
2023-06-29T07:26:39.329Z,6.72
2023-06-29T07:29:07.406Z,7.03
2023-06-29T07:31:34.887Z,5.85
2023-06-29T07:34:02.647Z,5.30
2023-06-29T07:36:30.472Z,6.38
2023-06-29T07:38:58.323Z,4.70
2023-06-29T07:41:25.972Z,4.38
2023-06-29T07:43:57.105Z,11.88
2023-06-29T07:46:24.781Z,3.97
2023-06-29T07:48:54.586Z,3.97
2023-06-29T07:51:22.919Z,6.30
2023-06-29T07:53:51.545Z,5.32
2023-06-29T07:56:19.916Z,5.90
2023-06-29T07:58:47.909Z,5.50
2023-06-29T08:01:15.388Z,4.45
2023-06-29T08:04:01.469Z,4.13
2023-06-29T08:09:04.616Z,2.70
2023-06-29T08:11:32.080Z,3.42
2023-06-29T08:13:59.759Z,4.90
2023-06-29T08:16:27.319Z,2.60
2023-06-29T08:18:55.063Z,7.13
2023-06-29T08:21:22.428Z,3.58
2023-06-29T08:23:51.846Z,5.82
2023-06-29T08:26:19.608Z,3.92
2023-06-29T08:28:47.375Z,1.70
2023-06-29T08:31:15.637Z,2.55
2023-06-29T08:33:44.116Z,5.50
2023-06-29T08:36:11.538Z,4.00
2023-06-29T08:38:39.199Z,3.28
2023-06-29T08:41:07.132Z,4.70
2023-06-29T08:43:34.860Z,3.03
2023-06-29T08:46:04.156Z,4.35
2023-06-29T08:48:33.373Z,3.10
2023-06-29T08:51:11.507Z,3.60
2023-06-29T08:53:41.651Z,4.45
2023-06-29T08:56:09.264Z,6.45
2023-06-29T08:58:37.290Z,3.58
2023-06-29T09:01:04.870Z,4.60
2023-06-29T09:03:34.187Z,4.53
2023-06-29T09:06:01.961Z,4.85
2023-06-29T09:08:29.811Z,3.47
2023-06-29T09:10:57.524Z,2.25
2023-06-29T09:13:27.827Z,3.00
2023-06-29T09:15:56.039Z,8.52
2023-06-29T09:18:24.897Z,3.50
2023-06-29T09:20:56.235Z,4.45
2023-06-29T09:23:24.989Z,4.25
2023-06-29T09:25:55.041Z,3.92
2023-06-29T09:28:22.772Z,3.10
2023-06-29T09:30:52.968Z,3.70
2023-06-29T09:33:22.576Z,2.78
2023-06-29T09:35:52.538Z,6.90
2023-06-29T09:38:21.521Z,6.20
2023-06-29T09:40:49.019Z,4.35
2023-06-29T09:43:18.173Z,3.22
2023-06-29T09:45:45.662Z,2.88
2023-06-29T09:50:54.306Z,5.25
2023-06-29T09:53:34.994Z,4.72
2023-06-29T09:56:03.970Z,4.43
2023-06-29T09:58:32.218Z,4.40
2023-06-29T10:01:01.685Z,2.70
2023-06-29T10:03:32.522Z,13.45
2023-06-29T10:06:03.031Z,4.25
2023-06-29T10:08:33.926Z,5.18
2023-06-29T10:11:03.707Z,4.13
2023-06-29T10:13:33.085Z,2.83
2023-06-29T10:16:01.307Z,3.50
2023-06-29T10:18:31.694Z,3.28
2023-06-29T10:20:59.307Z,3.33
2023-06-29T10:23:27.339Z,5.78
2023-06-29T10:25:54.942Z,5.03
2023-06-29T10:28:22.951Z,6.18
2023-06-29T10:30:52.306Z,3.05
2023-06-29T10:33:24.029Z,14.30
2023-06-29T10:35:54.586Z,6.38
2023-06-29T10:38:22.205Z,3.50
2023-06-29T10:40:50.151Z,8.30
2023-06-29T10:43:18.111Z,4.70
2023-06-29T10:45:45.441Z,3.90
2023-06-29T10:48:25.457Z,5.10
2023-06-29T10:50:58.993Z,3.42
2023-06-29T10:53:30.031Z,3.20
2023-06-29T10:55:58.351Z,5.32
2023-06-29T10:58:26.892Z,5.70
2023-06-29T11:00:55.523Z,5.75
2023-06-29T11:03:23.992Z,6.90
2023-06-29T11:05:52.173Z,5.20
2023-06-29T11:08:21.613Z,5.40
2023-06-29T11:10:49.080Z,3.90
2023-06-29T11:13:19.125Z,6.63
2023-06-29T11:15:53.185Z,3.60
2023-06-29T11:18:21.122Z,3.10
2023-06-29T11:20:48.509Z,2.95
2023-06-29T11:23:17.944Z,6.15
2023-06-29T11:25:45.362Z,2.92
2023-06-29T11:28:16.144Z,4.50
2023-06-29T11:30:43.886Z,4.13
2023-06-29T11:36:00.492Z,5.47
2023-06-29T11:38:28.320Z,2.97
2023-06-29T11:41:08.168Z,4.18
2023-06-29T11:43:36.405Z,6.00
2023-06-29T11:46:04.504Z,7.65
2023-06-29T11:48:32.229Z,5.93
2023-06-29T11:51:01.113Z,4.75
2023-06-29T11:53:29.510Z,9.30
2023-06-29T11:55:57.704Z,5.85
2023-06-29T11:58:34.104Z,4.53
2023-06-29T12:01:01.682Z,6.68
2023-06-29T12:03:29.528Z,3.35
2023-06-29T12:05:59.918Z,6.40
2023-06-29T12:08:29.946Z,3.60
2023-06-29T12:10:57.596Z,3.35
2023-06-29T12:13:25.256Z,6.80
2023-06-29T12:18:25.015Z,4.40
2023-06-29T12:20:52.776Z,3.75
2023-06-29T12:23:20.596Z,2.55
2023-06-29T12:25:49.099Z,4.32
2023-06-29T12:28:17.304Z,4.65
2023-06-29T12:30:45.480Z,4.18
2023-06-29T12:33:13.869Z,5.13
2023-06-29T12:35:41.264Z,2.40
2023-06-29T12:38:08.938Z,3.58
2023-06-29T12:40:36.376Z,5.32
2023-06-29T12:43:04.423Z,3.03
2023-06-29T12:45:31.897Z,4.00
2023-06-29T12:47:59.619Z,2.83
2023-06-29T12:50:27.073Z,3.30
2023-06-29T12:52:54.765Z,10.02
2023-06-29T12:55:22.196Z,4.05
2023-06-29T12:57:49.873Z,4.95
2023-06-29T13:00:20.943Z,3.38
2023-06-29T13:02:48.875Z,3.50
2023-06-29T13:05:16.535Z,4.03
2023-06-29T13:07:44.526Z,3.63
2023-06-29T13:10:14.875Z,4.32
2023-06-29T13:12:42.985Z,3.00
2023-06-29T13:15:10.589Z,4.03
2023-06-29T13:17:38.206Z,8.38
2023-06-29T13:20:06.239Z,4.32
2023-06-29T13:22:35.381Z,2.72
2023-06-29T13:25:03.385Z,3.67
2023-06-29T13:27:31.168Z,3.85
2023-06-29T13:29:58.560Z,3.78
2023-06-29T13:32:26.221Z,3.63
2023-06-29T13:34:53.571Z,4.97
2023-06-29T13:37:23.225Z,2.40
2023-06-29T13:39:50.999Z,9.48
2023-06-29T13:42:18.643Z,6.03
2023-06-29T13:44:46.528Z,4.70
2023-06-29T13:47:21.097Z,3.13
2023-06-29T13:49:49.214Z,4.35
2023-06-29T13:52:16.967Z,6.15
2023-06-29T13:54:44.701Z,3.65
2023-06-29T13:57:12.336Z,5.90
2023-06-29T13:59:39.799Z,2.20
2023-06-29T14:02:08.112Z,5.05
2023-06-29T14:04:35.682Z,6.43
2023-06-29T14:07:03.533Z,3.63
2023-06-29T14:09:31.273Z,2.45
2023-06-29T14:11:59.834Z,5.07
2023-06-29T14:14:27.335Z,2.90
2023-06-29T14:16:54.998Z,5.07
2023-06-29T14:19:22.426Z,4.60
2023-06-29T14:21:50.037Z,4.78
2023-06-29T14:24:17.385Z,6.80
2023-06-29T14:26:45.309Z,4.28
2023-06-29T14:29:12.768Z,3.22
2023-06-29T14:31:40.491Z,3.60
2023-06-29T14:34:08.057Z,3.97
2023-06-29T14:36:35.788Z,5.20
2023-06-29T14:39:03.205Z,3.75
2023-06-29T14:41:30.907Z,5.88
2023-06-29T14:43:58.298Z,3.17
2023-06-29T14:46:25.968Z,4.43
2023-06-29T14:48:53.390Z,3.40
2023-06-29T14:51:21.258Z,3.28
2023-06-29T14:53:48.660Z,6.57
2023-06-29T14:56:16.289Z,7.43
2023-06-29T14:58:43.900Z,3.28
2023-06-29T15:01:11.696Z,3.95
2023-06-29T15:03:39.841Z,6.53
2023-06-29T15:06:07.784Z,3.80
2023-06-29T15:08:35.138Z,5.47
2023-06-29T15:11:02.724Z,4.60
2023-06-29T15:13:30.088Z,3.85
2023-06-29T15:15:59.307Z,3.47
2023-06-29T15:18:26.796Z,6.80
2023-06-29T15:20:54.560Z,2.83
2023-06-29T15:23:22.037Z,3.95
2023-06-29T15:25:50.030Z,5.55
2023-06-29T15:28:17.511Z,3.78
2023-06-29T15:30:53.310Z,10.68
2023-06-29T15:33:21.183Z,4.53
2023-06-29T15:35:49.586Z,6.00
2023-06-29T15:38:18.580Z,5.05
2023-06-29T15:40:48.864Z,5.80
2023-06-29T15:43:16.312Z,3.22
2023-06-29T15:45:44.129Z,3.90
2023-06-29T15:48:11.865Z,5.63
2023-06-29T15:50:39.600Z,3.75
2023-06-29T15:53:07.056Z,3.85
2023-06-29T15:55:34.742Z,9.32
2023-06-29T15:58:02.074Z,8.88
2023-06-29T16:00:30.469Z,2.88
2023-06-29T16:02:58.080Z,5.68
2023-06-29T16:05:25.854Z,2.85
2023-06-29T16:07:54.162Z,3.38
2023-06-29T16:10:21.876Z,5.72
2023-06-29T16:12:49.404Z,3.85
2023-06-29T16:15:18.206Z,4.35
2023-06-29T16:17:45.721Z,5.65
2023-06-29T16:20:13.461Z,5.25
2023-06-29T16:22:40.904Z,5.78
2023-06-29T16:25:08.836Z,6.13
2023-06-29T16:27:36.366Z,3.88
2023-06-29T16:30:04.615Z,4.85
2023-06-29T16:32:32.159Z,4.15
2023-06-29T16:34:59.900Z,4.18
2023-06-29T16:37:27.422Z,3.28
2023-06-29T16:39:55.162Z,4.72
2023-06-29T16:42:22.628Z,4.20
2023-06-29T16:44:50.284Z,3.97
2023-06-29T16:47:17.683Z,6.93
2023-06-29T16:49:45.471Z,3.67
2023-06-29T16:52:13.068Z,4.93
2023-06-29T16:54:40.751Z,9.73
2023-06-29T16:57:08.191Z,4.72
2023-06-29T16:59:37.472Z,4.47
2023-06-29T17:02:06.695Z,5.70
2023-06-29T17:04:34.852Z,3.15
2023-06-29T17:07:02.250Z,11.73
2023-06-29T17:09:29.908Z,23.25
2023-06-29T17:11:57.329Z,18.98
2023-06-29T17:14:25.020Z,13.65
2023-06-29T17:16:54.082Z,4.82
2023-06-29T17:19:21.945Z,4.53
2023-06-29T17:21:49.266Z,5.15
2023-06-29T17:24:16.925Z,3.65
2023-06-29T17:26:44.269Z,7.57
2023-06-29T17:29:11.909Z,5.57
2023-06-29T17:31:39.258Z,4.38
2023-06-29T17:34:06.991Z,6.70
2023-06-29T17:36:35.657Z,7.13
2023-06-29T17:39:03.596Z,6.63
2023-06-29T17:41:31.019Z,6.25
2023-06-29T17:43:58.723Z,5.78
2023-06-29T17:46:26.103Z,5.53
2023-06-29T17:48:53.753Z,6.10
2023-06-29T17:51:21.202Z,8.45
2023-06-29T17:53:48.857Z,4.97
2023-06-29T17:56:16.716Z,3.60
2023-06-29T17:58:45.036Z,5.07
2023-06-29T18:01:12.425Z,4.28
2023-06-29T18:03:40.741Z,4.30
2023-06-29T18:06:08.484Z,7.22
2023-06-29T18:08:36.383Z,5.05
2023-06-29T18:11:04.189Z,3.90
2023-06-29T18:13:31.845Z,3.83
2023-06-29T18:15:59.344Z,3.70
2023-06-29T18:18:27.119Z,7.65
2023-06-29T18:20:54.645Z,3.38
2023-06-29T18:23:22.321Z,6.45
2023-06-29T18:25:49.680Z,2.70
2023-06-29T18:28:17.586Z,5.30
2023-06-29T18:30:45.085Z,5.78
2023-06-29T18:33:12.888Z,7.03
2023-06-29T18:35:40.350Z,6.72
2023-06-29T18:38:08.016Z,7.32
2023-06-29T18:40:35.660Z,4.68
2023-06-29T18:43:03.244Z,4.82
2023-06-29T18:45:31.664Z,3.60
2023-06-29T18:47:59.500Z,4.80
2023-06-29T18:50:26.926Z,5.07
2023-06-29T18:52:58.355Z,4.35
2023-06-29T18:55:26.847Z,4.35
2023-06-29T18:57:54.607Z,2.67
2023-06-29T19:00:22.082Z,3.25
2023-06-29T19:02:50.001Z,4.15
2023-06-29T19:05:19.957Z,3.83
2023-06-29T19:07:48.113Z,2.90
2023-06-29T19:10:15.596Z,4.65
2023-06-29T19:12:43.255Z,5.68
2023-06-29T19:15:10.886Z,10.25
2023-06-29T19:17:39.207Z,37.63
2023-06-29T19:20:06.989Z,35.05
2023-06-29T19:22:34.623Z,16.88
2023-06-29T19:25:01.988Z,9.77
2023-06-29T19:27:29.649Z,5.45
2023-06-29T19:29:57.016Z,8.60
2023-06-29T19:32:24.716Z,8.23
2023-06-29T19:34:52.166Z,7.05
2023-06-29T19:37:19.860Z,9.70
2023-06-29T19:39:47.646Z,5.90
2023-06-29T19:42:15.252Z,8.18
2023-06-29T19:44:42.619Z,6.93
2023-06-29T19:47:10.262Z,6.97
2023-06-29T19:49:37.617Z,8.95
2023-06-29T19:52:06.994Z,6.68
2023-06-29T19:54:34.365Z,7.63
2023-06-29T19:57:01.951Z,5.78
2023-06-29T19:59:29.472Z,5.30
2023-06-29T20:01:58.212Z,8.70
2023-06-29T20:04:25.656Z,8.40
2023-06-29T20:06:53.378Z,6.28
2023-06-29T20:09:20.917Z,9.27
2023-06-29T20:11:48.560Z,5.00
2023-06-29T20:14:15.948Z,6.03
2023-06-29T20:16:43.756Z,6.40
2023-06-29T20:19:11.179Z,12.25
2023-06-29T20:21:38.840Z,6.05
2023-06-29T20:24:06.295Z,5.40
2023-06-29T20:26:34.339Z,7.03
2023-06-29T20:29:01.689Z,6.38
2023-06-29T20:31:29.543Z,12.18
2023-06-29T20:33:56.925Z,6.38
2023-06-29T20:36:24.593Z,8.07
2023-06-29T20:38:51.904Z,5.60
2023-06-29T20:41:19.627Z,12.73
2023-06-29T20:43:47.515Z,5.78
2023-06-29T20:46:19.473Z,7.65
2023-06-29T20:48:48.241Z,6.00
2023-06-29T20:51:18.042Z,8.40
2023-06-29T20:53:46.316Z,4.43
2023-06-29T20:56:14.080Z,6.85
2023-06-29T20:58:41.515Z,4.78
2023-06-29T21:01:09.392Z,5.13
2023-06-29T21:03:38.870Z,5.65
2023-06-29T21:06:06.554Z,8.77
2023-06-29T21:08:33.886Z,5.75
2023-06-29T21:11:01.695Z,5.78
2023-06-29T21:13:29.250Z,6.28
2023-06-29T21:15:56.975Z,5.15
2023-06-29T21:18:24.541Z,7.13
2023-06-29T21:20:52.352Z,5.72
2023-06-29T21:23:19.818Z,7.72
2023-06-29T21:25:47.707Z,5.90
2023-06-29T21:28:16.004Z,9.48
2023-06-29T21:30:43.735Z,5.90
2023-06-29T21:33:11.266Z,6.85
2023-06-29T21:35:39.099Z,8.20
2023-06-29T21:38:06.644Z,5.72
2023-06-29T21:40:35.428Z,7.53
2023-06-29T21:43:02.830Z,9.10
2023-06-29T21:45:30.443Z,6.68
2023-06-29T21:47:57.831Z,6.38
2023-06-29T21:50:25.480Z,8.13
2023-06-29T21:52:52.902Z,3.97
2023-06-29T21:55:20.515Z,5.85
2023-06-29T21:57:47.955Z,7.05
2023-06-29T22:00:16.451Z,8.32
2023-06-29T22:02:44.824Z,3.75
2023-06-29T22:05:13.674Z,6.38
2023-06-29T22:07:41.713Z,6.78
2023-06-29T22:10:09.864Z,12.63
2023-06-29T22:12:42.395Z,9.05
2023-06-29T22:15:10.713Z,6.57
2023-06-29T22:17:38.504Z,3.92
2023-06-29T22:20:16.358Z,8.15
2023-06-29T22:22:44.333Z,4.97
2023-06-29T22:25:11.981Z,5.13
2023-06-29T22:27:39.651Z,6.22
2023-06-29T22:30:07.369Z,6.53
2023-06-29T22:32:35.063Z,4.28
2023-06-29T22:35:02.576Z,8.40
2023-06-29T22:37:30.234Z,9.00
2023-06-29T22:39:57.969Z,6.63
2023-06-29T22:42:25.654Z,4.85
2023-06-29T22:44:52.957Z,6.57
2023-06-29T22:47:20.632Z,4.82
2023-06-29T22:49:48.008Z,6.68
2023-06-29T22:52:21.081Z,6.05
2023-06-29T22:54:50.140Z,6.05
2023-06-29T22:57:21.860Z,7.53
2023-06-29T22:59:53.889Z,6.55
2023-06-29T23:02:22.130Z,6.47
2023-06-29T23:04:49.888Z,8.48
2023-06-29T23:07:19.299Z,4.65
2023-06-29T23:09:47.118Z,8.82
2023-06-29T23:12:14.942Z,7.97
2023-06-29T23:14:42.768Z,5.78
2023-06-29T23:17:10.469Z,7.13
2023-06-29T23:19:37.813Z,9.48
2023-06-29T23:22:08.441Z,7.88
2023-06-29T23:24:35.945Z,7.75
2023-06-29T23:27:03.565Z,9.95
2023-06-29T23:29:31.652Z,6.93
2023-06-29T23:31:59.292Z,8.65
2023-06-29T23:34:26.724Z,6.32
2023-06-29T23:36:54.548Z,8.63
2023-06-29T23:39:21.950Z,6.93
2023-06-29T23:41:49.538Z,5.88
2023-06-29T23:44:17.040Z,6.68
2023-06-29T23:46:45.768Z,7.30
2023-06-29T23:49:13.996Z,5.97
2023-06-29T23:51:43.129Z,6.90
2023-06-29T23:54:11.191Z,8.30
2023-06-29T23:56:39.636Z,5.05
2023-06-29T23:59:07.591Z,5.57
